createdAt,value
2018-12-12T00:01:01.443Z,98088.70
2018-12-12T00:03:33.693Z,98090.78
2018-12-12T00:06:05.918Z,98091.48
2018-12-12T00:08:36.370Z,98087.94
2018-12-12T00:11:06.618Z,98096.44
2018-12-12T00:13:41.626Z,98095.23
2018-12-12T00:16:11.835Z,98099.61
2018-12-12T00:18:43.334Z,98101.84
2018-12-12T00:21:13.609Z,98101.68
2018-12-12T00:26:20.483Z,98111.97
2018-12-12T00:28:50.453Z,98112.05
2018-12-12T00:31:21.017Z,98114.05
2018-12-12T00:33:52.528Z,98116.41
2018-12-12T00:36:23.148Z,98121.41
2018-12-12T00:41:30.526Z,98130.20
2018-12-12T00:44:00.449Z,98133.50
2018-12-12T00:46:31.998Z,98136.03
2018-12-12T00:49:02.473Z,98138.37
2018-12-12T00:51:33.786Z,98139.70
2018-12-12T00:54:03.912Z,98140.03
2018-12-12T00:56:34.211Z,98138.00
2018-12-12T00:59:05.521Z,98139.83
2018-12-12T01:01:35.750Z,98137.00
2018-12-12T01:04:05.832Z,98139.16
2018-12-12T01:06:35.990Z,98140.30
2018-12-12T01:09:07.446Z,98143.20
2018-12-12T01:11:43.796Z,98146.49
2018-12-12T01:14:14.490Z,98146.56
2018-12-12T01:16:45.373Z,98154.73
2018-12-12T01:19:15.631Z,98145.86
2018-12-12T01:21:46.127Z,98149.59
2018-12-12T01:24:16.314Z,98151.23
2018-12-12T01:26:46.529Z,98157.36
2018-12-12T01:29:17.135Z,98153.39
2018-12-12T01:31:47.414Z,98150.70
2018-12-12T01:34:17.787Z,98156.26
2018-12-12T01:36:48.199Z,98154.86
2018-12-12T01:39:19.282Z,98162.82
2018-12-12T01:41:50.011Z,98163.05
2018-12-12T01:44:20.168Z,98162.86
2018-12-12T01:46:51.043Z,98161.09
2018-12-12T01:49:21.215Z,98163.52
2018-12-12T01:51:51.597Z,98167.82
2018-12-12T01:54:22.147Z,98161.52
2018-12-12T01:56:52.584Z,98164.85
2018-12-12T01:59:22.816Z,98161.95
2018-12-12T02:01:52.932Z,98167.78
2018-12-12T02:04:23.719Z,98169.12
2018-12-12T02:06:58.418Z,98162.95
2018-12-12T02:09:28.607Z,98167.32
2018-12-12T02:11:59.931Z,98159.34
2018-12-12T02:14:30.972Z,98172.48
2018-12-12T02:17:01.202Z,98169.81
2018-12-12T02:19:31.412Z,98177.81
2018-12-12T02:22:02.379Z,98175.15
2018-12-12T02:24:33.041Z,98177.48
2018-12-12T02:27:03.889Z,98183.52
2018-12-12T02:29:34.039Z,98185.11
2018-12-12T02:32:04.301Z,98183.48
2018-12-12T02:34:35.217Z,98184.44
2018-12-12T02:37:06.104Z,98184.14
2018-12-12T02:39:36.287Z,98186.07
2018-12-12T02:42:06.671Z,98191.17
2018-12-12T02:44:40.993Z,98188.63
2018-12-12T02:47:12.307Z,98186.72
2018-12-12T02:49:42.361Z,98191.09
2018-12-12T02:52:12.870Z,98192.89
2018-12-12T02:54:42.968Z,98194.36
2018-12-12T02:57:13.454Z,98198.86
2018-12-12T02:59:43.738Z,98196.72
2018-12-12T03:02:13.957Z,98203.63
2018-12-12T03:04:44.371Z,98200.23
2018-12-12T03:07:14.661Z,98204.50
2018-12-12T03:09:44.606Z,98205.22
2018-12-12T03:12:14.882Z,98203.19
2018-12-12T03:14:45.224Z,98204.12
2018-12-12T03:17:16.389Z,98205.08
2018-12-12T03:19:46.610Z,98205.45
2018-12-12T03:22:16.854Z,98208.11
2018-12-12T03:24:47.765Z,98212.75
2018-12-12T03:27:17.917Z,98218.41
2018-12-12T03:29:48.215Z,98211.17
2018-12-12T03:32:18.348Z,98217.01
2018-12-12T03:34:48.548Z,98216.64
2018-12-12T03:37:18.696Z,98217.34
2018-12-12T03:39:49.097Z,98221.47
2018-12-12T03:42:19.843Z,98219.44
2018-12-12T03:44:50.243Z,98223.64
2018-12-12T03:47:26.227Z,98224.27
2018-12-12T03:49:56.349Z,98233.11
2018-12-12T03:52:26.610Z,98233.61
2018-12-12T03:54:56.840Z,98233.81
2018-12-12T03:57:27.594Z,98240.92
2018-12-12T03:59:57.616Z,98241.70
2018-12-12T04:05:05.502Z,98249.00
2018-12-12T04:07:35.438Z,98248.50
2018-12-12T04:10:06.194Z,98254.67
2018-12-12T04:12:36.250Z,98254.47
2018-12-12T04:15:06.672Z,98250.20
2018-12-12T04:17:36.770Z,98250.33
2018-12-12T04:20:07.203Z,98259.77
2018-12-12T04:22:37.249Z,98260.00
2018-12-12T04:25:08.334Z,98261.97
2018-12-12T04:27:38.433Z,98269.46
2018-12-12T04:30:09.261Z,98268.77
2018-12-12T04:32:39.336Z,98266.23
2018-12-12T04:35:09.522Z,98264.88
2018-12-12T04:37:39.703Z,98267.67
2018-12-12T04:40:09.850Z,98268.03
2018-12-12T04:42:39.776Z,98271.30
2018-12-12T04:45:10.122Z,98269.00
2018-12-12T04:47:40.362Z,98274.01
2018-12-12T04:50:10.486Z,98279.17
2018-12-12T04:52:41.769Z,98279.11
2018-12-12T04:55:12.025Z,98280.67
2018-12-12T04:57:42.146Z,98278.31
2018-12-12T05:00:12.439Z,98279.55
2018-12-12T05:02:42.896Z,98280.08
2018-12-12T05:05:13.210Z,98285.41
2018-12-12T05:07:43.572Z,98284.05
2018-12-12T05:10:13.976Z,98294.11
2018-12-12T05:12:44.300Z,98291.84
2018-12-12T05:15:14.695Z,98289.91
2018-12-12T05:17:44.899Z,98293.55
2018-12-12T05:20:15.113Z,98292.41
2018-12-12T05:22:45.345Z,98294.61
2018-12-12T05:25:15.471Z,98295.67
2018-12-12T05:27:45.678Z,98300.81
2018-12-12T05:30:16.682Z,98298.44
2018-12-12T05:32:47.772Z,98302.73
2018-12-12T05:35:18.136Z,98308.79
2018-12-12T05:37:51.790Z,98308.16
2018-12-12T05:40:20.991Z,98314.32
2018-12-12T05:42:51.049Z,98316.06
2018-12-12T05:45:21.548Z,98316.91
2018-12-12T05:47:52.314Z,98319.93
2018-12-12T05:50:22.360Z,98317.63
2018-12-12T05:52:56.444Z,98325.95
2018-12-12T05:55:26.830Z,98324.21
2018-12-12T05:57:56.859Z,98329.02
2018-12-12T06:00:26.979Z,98333.68
2018-12-12T06:02:59.941Z,98344.01
2018-12-12T06:05:30.377Z,98338.52
2018-12-12T06:08:01.056Z,98343.02
2018-12-12T06:10:31.230Z,98338.81
2018-12-12T06:13:01.661Z,98349.17
2018-12-12T06:15:32.619Z,98353.98
2018-12-12T06:18:02.952Z,98357.31
2018-12-12T06:20:33.208Z,98354.59
2018-12-12T06:23:03.428Z,98355.42
2018-12-12T06:25:33.642Z,98357.93
2018-12-12T06:28:04.213Z,98364.59
2018-12-12T06:30:34.700Z,98367.93
2018-12-12T06:33:05.985Z,98369.43
2018-12-12T06:35:36.042Z,98376.54
2018-12-12T06:38:06.224Z,98370.87
2018-12-12T06:40:36.481Z,98373.90
2018-12-12T06:43:06.337Z,98375.62
2018-12-12T06:45:36.481Z,98383.66
2018-12-12T06:48:06.561Z,98391.85
2018-12-12T06:50:36.804Z,98382.09
2018-12-12T06:53:07.026Z,98388.48
2018-12-12T06:55:37.128Z,98385.73
2018-12-12T06:58:07.188Z,98382.33
2018-12-12T07:00:37.237Z,98381.33
2018-12-12T07:03:07.155Z,98391.06
2018-12-12T07:08:14.588Z,98398.22
2018-12-12T07:10:44.538Z,98394.85
2018-12-12T07:15:51.849Z,98401.75
2018-12-12T07:18:21.872Z,98405.98
2018-12-12T07:20:52.632Z,98412.19
2018-12-12T07:23:22.617Z,98410.66
2018-12-12T07:25:52.901Z,98413.75
2018-12-12T07:28:23.042Z,98417.94
2018-12-12T07:30:53.546Z,98419.61
2018-12-12T07:33:23.659Z,98421.77
2018-12-12T07:35:59.338Z,98428.86
2018-12-12T07:38:26.237Z,98433.36
2018-12-12T07:40:57.036Z,98429.20
2018-12-12T07:43:31.869Z,98428.20
2018-12-12T07:46:07.609Z,98435.59
2018-12-12T07:48:39.835Z,98435.61
2018-12-12T07:51:26.836Z,98430.28
2018-12-12T07:54:16.712Z,98439.53
2018-12-12T07:56:46.790Z,98441.84
2018-12-12T07:59:16.907Z,98438.39
2018-12-12T08:04:23.401Z,98451.59
2018-12-12T08:06:53.713Z,98448.61
2018-12-12T08:09:23.971Z,98456.09
2018-12-12T08:11:54.076Z,98444.92
2018-12-12T08:14:24.284Z,98450.70
2018-12-12T08:16:54.723Z,98453.47
2018-12-12T08:19:24.795Z,98460.39
2018-12-12T08:21:55.381Z,98463.47
2018-12-12T08:24:25.307Z,98461.58
2018-12-12T08:26:55.339Z,98465.36
2018-12-12T08:29:25.656Z,98466.03
2018-12-12T08:31:55.997Z,98468.50
2018-12-12T08:34:26.349Z,98470.30
2018-12-12T08:36:56.433Z,98472.14
2018-12-12T08:39:26.528Z,98477.12
2018-12-12T08:41:56.416Z,98477.48
2018-12-12T08:44:27.467Z,98487.91
2018-12-12T08:46:57.426Z,98488.74
2018-12-12T08:52:05.168Z,98494.63
2018-12-12T08:54:35.452Z,98496.80
2018-12-12T08:57:05.769Z,98493.76
2018-12-12T08:59:36.114Z,98506.69
2018-12-12T09:02:06.157Z,98503.65
2018-12-12T09:04:36.425Z,98508.27
2018-12-12T09:07:07.435Z,98505.05
2018-12-12T09:09:37.539Z,98512.50
2018-12-12T09:12:07.738Z,98512.17
2018-12-12T09:14:38.948Z,98517.52
2018-12-12T09:17:11.067Z,98517.11
2018-12-12T09:19:41.516Z,98520.75
2018-12-12T09:22:11.776Z,98512.13
2018-12-12T09:27:18.701Z,98519.75
2018-12-12T09:29:50.615Z,98522.12
2018-12-12T09:32:23.759Z,98530.89
2018-12-12T09:34:56.078Z,98525.09
2018-12-12T09:37:26.170Z,98533.41
2018-12-12T09:39:56.107Z,98530.61
2018-12-12T09:42:26.088Z,98524.80
2018-12-12T09:44:56.183Z,98532.91
2018-12-12T09:47:26.921Z,98531.67
2018-12-12T09:49:56.846Z,98527.56
2018-12-12T09:52:28.783Z,98530.73
2018-12-12T09:55:00.790Z,98537.05
2018-12-12T09:57:30.793Z,98529.37
2018-12-12T10:00:00.706Z,98532.14
2018-12-12T10:02:30.817Z,98531.04
2018-12-12T10:05:01.807Z,98526.80
2018-12-12T10:07:32.843Z,98526.91
2018-12-12T10:10:02.840Z,98523.88
2018-12-12T10:12:32.906Z,98524.64
2018-12-12T10:15:03.038Z,98527.89
2018-12-12T10:17:34.650Z,98530.06
2018-12-12T10:20:06.071Z,98535.55
2018-12-12T10:22:36.211Z,98536.78
2018-12-12T10:25:13.151Z,98535.91
2018-12-12T10:27:43.539Z,98530.93
2018-12-12T10:30:13.789Z,98527.01
2018-12-12T10:32:43.805Z,98525.89
2018-12-12T10:35:14.663Z,98534.88
2018-12-12T10:37:45.418Z,98531.15
2018-12-12T10:40:15.646Z,98531.91
2018-12-12T10:42:45.598Z,98536.10
2018-12-12T10:45:15.604Z,98530.48
2018-12-12T10:47:45.696Z,98537.02
2018-12-12T10:50:15.668Z,98542.58
2018-12-12T10:52:46.576Z,98542.54
2018-12-12T10:55:16.602Z,98541.06
2018-12-12T10:57:46.556Z,98542.63
2018-12-12T11:00:16.656Z,98548.90
2018-12-12T11:02:51.147Z,98540.67
2018-12-12T11:05:21.541Z,98550.83
2018-12-12T11:07:51.725Z,98542.36
2018-12-12T11:10:23.068Z,98535.35
2018-12-12T11:12:53.722Z,98548.94
2018-12-12T11:15:23.656Z,98541.37
2018-12-12T11:17:57.845Z,98549.80
2018-12-12T11:20:28.544Z,98547.83
2018-12-12T11:22:58.713Z,98547.49
2018-12-12T11:25:29.913Z,98550.91
2018-12-12T11:28:01.280Z,98546.95
2018-12-12T11:30:31.199Z,98550.52
2018-12-12T11:33:01.622Z,98553.68
2018-12-12T11:35:31.723Z,98555.30
2018-12-12T11:38:02.617Z,98558.78
2018-12-12T11:40:32.987Z,98567.70
2018-12-12T11:43:02.989Z,98569.02
2018-12-12T11:45:33.908Z,98568.47
2018-12-12T11:48:04.049Z,98575.42
2018-12-12T11:50:34.060Z,98575.82
2018-12-12T11:53:04.468Z,98575.68
2018-12-12T11:55:34.610Z,98574.94
2018-12-12T11:58:05.839Z,98582.23
2018-12-12T12:00:36.395Z,98579.14
2018-12-12T12:03:06.708Z,98584.75
2018-12-12T12:05:36.736Z,98584.87
2018-12-12T12:08:06.873Z,98582.53
2018-12-12T12:10:36.872Z,98591.72
2018-12-12T12:13:08.938Z,98589.09
2018-12-12T12:15:38.994Z,98591.23
2018-12-12T12:18:09.315Z,98596.16
2018-12-12T12:20:39.443Z,98593.25
2018-12-12T12:23:09.451Z,98601.03
2018-12-12T12:25:39.356Z,98598.06
2018-12-12T12:28:09.500Z,98602.93
2018-12-12T12:30:39.535Z,98612.28
2018-12-12T12:33:09.956Z,98605.52
2018-12-12T12:35:39.819Z,98611.50
2018-12-12T12:38:09.763Z,98612.22
2018-12-12T12:40:39.847Z,98614.45
2018-12-12T12:43:10.041Z,98616.23
2018-12-12T12:45:40.182Z,98616.42
2018-12-12T12:48:10.240Z,98622.47
2018-12-12T12:50:40.444Z,98624.24
2018-12-12T12:53:10.342Z,98622.55
2018-12-12T12:55:41.346Z,98626.89
2018-12-12T12:58:11.764Z,98631.51
2018-12-12T13:00:42.329Z,98631.88
2018-12-12T13:03:12.586Z,98628.36
2018-12-12T13:05:43.661Z,98630.78
2018-12-12T13:08:13.734Z,98635.97
2018-12-12T13:10:44.042Z,98640.83
2018-12-12T13:13:15.004Z,98643.00
2018-12-12T13:15:45.611Z,98647.29
2018-12-12T13:18:15.996Z,98648.96
2018-12-12T13:20:46.084Z,98648.12
2018-12-12T13:23:16.568Z,98655.86
2018-12-12T13:25:46.458Z,98658.20
2018-12-12T13:28:16.666Z,98659.17
2018-12-12T13:30:46.797Z,98660.65
2018-12-12T13:33:17.525Z,98655.33
2018-12-12T13:35:48.565Z,98662.98
2018-12-12T13:38:18.787Z,98662.70
2018-12-12T13:40:49.144Z,98667.34
2018-12-12T13:43:19.110Z,98675.06
2018-12-12T13:45:49.436Z,98673.87
2018-12-12T13:48:19.744Z,98674.58
2018-12-12T13:50:49.773Z,98675.92
2018-12-12T13:53:20.005Z,98679.28
2018-12-12T13:55:50.169Z,98678.38
2018-12-12T13:58:20.242Z,98682.87
2018-12-12T14:00:50.470Z,98695.47
2018-12-12T14:06:05.983Z,98690.06
2018-12-12T14:08:35.985Z,98692.85
2018-12-12T14:11:06.212Z,98698.41
2018-12-12T14:13:36.351Z,98698.50
2018-12-12T14:16:06.733Z,98694.99
2018-12-12T14:18:36.783Z,98695.73
2018-12-12T14:23:43.267Z,98697.92
2018-12-12T14:26:13.340Z,98695.97
2018-12-12T14:28:43.555Z,98695.48
2018-12-12T14:31:13.683Z,98700.81
2018-12-12T14:33:44.745Z,98701.55
2018-12-12T14:36:14.975Z,98698.78
2018-12-12T14:38:45.039Z,98703.77
2018-12-12T14:41:14.914Z,98703.63
2018-12-12T14:43:44.812Z,98709.98
2018-12-12T14:46:14.856Z,98714.78
2018-12-12T14:48:45.721Z,98711.19
2018-12-12T14:51:16.187Z,98715.34
2018-12-12T14:53:47.077Z,98714.70
2018-12-12T14:56:17.038Z,98719.90
2018-12-12T14:58:47.081Z,98718.55
2018-12-12T15:01:21.000Z,98724.53
2018-12-12T15:03:53.951Z,98723.34
2018-12-12T15:06:23.991Z,98724.05
2018-12-12T15:08:54.595Z,98719.44
2018-12-12T15:11:25.875Z,98729.53
2018-12-12T15:13:55.857Z,98730.97
2018-12-12T15:16:26.264Z,98725.77
2018-12-12T15:18:56.333Z,98728.24
2018-12-12T15:24:05.020Z,98739.27
2018-12-12T15:26:35.071Z,98740.94
2018-12-12T15:29:05.661Z,98741.39
2018-12-12T15:31:35.865Z,98742.33
2018-12-12T15:34:05.972Z,98739.02
2018-12-12T15:36:36.777Z,98744.41
2018-12-12T15:39:09.146Z,98749.23
2018-12-12T15:41:39.172Z,98750.87
2018-12-12T15:44:09.481Z,98749.23
2018-12-12T15:46:40.058Z,98748.06
2018-12-12T15:49:10.956Z,98751.92
2018-12-12T15:51:41.011Z,98758.94
2018-12-12T15:54:12.091Z,98751.03
2018-12-12T15:56:42.031Z,98755.04
2018-12-12T15:59:12.567Z,98754.69
2018-12-12T16:01:43.350Z,98759.73
2018-12-12T16:04:13.496Z,98758.40
2018-12-12T16:06:43.660Z,98752.56
2018-12-12T16:09:13.712Z,98760.62
2018-12-12T16:11:43.848Z,98757.80
2018-12-12T16:14:17.603Z,98759.17
2018-12-12T16:16:48.098Z,98753.69
2018-12-12T16:19:18.433Z,98757.53
2018-12-12T16:21:48.334Z,98753.03
2018-12-12T16:24:26.056Z,98757.16
2018-12-12T16:26:56.602Z,98761.16
2018-12-12T16:29:27.083Z,98759.82
2018-12-12T16:31:56.998Z,98762.30
2018-12-12T16:34:27.065Z,98774.31
2018-12-12T16:36:56.988Z,98765.84
2018-12-12T16:39:27.027Z,98777.81
2018-12-12T16:41:57.040Z,98768.66
2018-12-12T16:44:27.202Z,98777.35
2018-12-12T16:47:02.858Z,98777.31
2018-12-12T16:52:10.053Z,98775.22
2018-12-12T16:54:40.137Z,98780.02
2018-12-12T16:57:10.771Z,98782.16
2018-12-12T16:59:40.966Z,98787.65
2018-12-12T17:02:11.057Z,98783.64
2018-12-12T17:04:40.953Z,98783.68
2018-12-12T17:07:12.135Z,98791.65
2018-12-12T17:09:42.104Z,98785.62
2018-12-12T17:12:12.141Z,98790.16
2018-12-12T17:14:42.352Z,98791.80
2018-12-12T17:17:12.485Z,98791.80
2018-12-12T17:19:42.729Z,98798.13
2018-12-12T17:22:12.907Z,98794.66
2018-12-12T17:24:42.967Z,98801.52
2018-12-12T17:27:12.970Z,98802.17
2018-12-12T17:29:43.014Z,98803.84
2018-12-12T17:32:13.294Z,98812.50
2018-12-12T17:34:43.387Z,98816.53
2018-12-12T17:37:13.619Z,98811.51
2018-12-12T17:39:43.757Z,98811.35
2018-12-12T17:42:13.653Z,98817.00
2018-12-12T17:44:43.632Z,98806.66
2018-12-12T17:47:13.724Z,98815.82
2018-12-12T17:49:43.699Z,98815.52
2018-12-12T17:52:13.618Z,98824.20
2018-12-12T17:54:43.537Z,98817.69
2018-12-12T17:57:13.650Z,98822.86
2018-12-12T17:59:43.803Z,98824.20
2018-12-12T18:02:13.773Z,98829.69
2018-12-12T18:05:03.759Z,98827.86
2018-12-12T18:07:35.299Z,98834.53
2018-12-12T18:10:06.955Z,98834.72
2018-12-12T18:12:36.878Z,98828.70
2018-12-12T18:15:07.205Z,98832.52
2018-12-12T18:17:39.264Z,98837.02
2018-12-12T18:20:09.247Z,98843.19
2018-12-12T18:22:39.781Z,98842.01
2018-12-12T18:25:11.668Z,98839.84
2018-12-12T18:27:41.587Z,98846.36
2018-12-12T18:30:11.526Z,98845.20
2018-12-12T18:32:43.782Z,98840.18
2018-12-12T18:35:21.943Z,98844.34
2018-12-12T18:37:52.563Z,98845.36
2018-12-12T18:40:22.835Z,98845.36
2018-12-12T18:42:54.785Z,98854.02
2018-12-12T18:45:25.420Z,98848.16
2018-12-12T18:47:55.368Z,98851.63
2018-12-12T18:50:28.036Z,98853.98
2018-12-12T18:53:04.234Z,98854.83
2018-12-12T18:55:34.283Z,98858.83
2018-12-12T18:58:05.607Z,98860.50
2018-12-12T19:00:35.545Z,98860.00
2018-12-12T19:03:06.189Z,98855.84
2018-12-12T19:05:36.294Z,98858.70
2018-12-12T19:08:07.225Z,98873.23
2018-12-12T19:10:37.252Z,98863.53
2018-12-12T19:13:08.082Z,98863.75
2018-12-12T19:15:38.168Z,98863.91
2018-12-12T19:18:08.207Z,98861.23
2018-12-12T19:20:39.156Z,98869.92
2018-12-12T19:23:09.575Z,98863.56
2018-12-12T19:28:17.946Z,98859.06
2018-12-12T19:30:48.778Z,98857.39
2018-12-12T19:33:22.927Z,98860.58
2018-12-12T19:35:52.805Z,98864.78
2018-12-12T19:41:01.059Z,98866.77
2018-12-12T19:43:31.129Z,98870.94
2018-12-12T19:46:01.205Z,98875.63
2018-12-12T19:48:31.591Z,98880.09
2018-12-12T19:51:02.738Z,98875.42
2018-12-12T19:53:33.048Z,98884.56
2018-12-12T19:56:03.059Z,98871.78
2018-12-12T19:58:34.571Z,98883.94
2018-12-12T20:01:09.443Z,98885.45
2018-12-12T20:03:39.412Z,98878.26
2018-12-12T20:06:09.446Z,98878.91
2018-12-12T20:08:40.036Z,98889.27
2018-12-12T20:11:10.212Z,98893.11
2018-12-12T20:13:40.180Z,98895.77
2018-12-12T20:16:10.166Z,98885.94
2018-12-12T20:18:40.338Z,98903.88
2018-12-12T20:21:11.257Z,98897.52
2018-12-12T20:23:41.157Z,98893.34
2018-12-12T20:26:11.492Z,98895.02
2018-12-12T20:31:24.594Z,98903.03
2018-12-12T20:33:54.665Z,98895.39
2018-12-12T20:36:28.668Z,98896.55
2018-12-12T20:38:58.692Z,98899.05
2018-12-12T20:41:28.784Z,98902.54
2018-12-12T20:43:59.547Z,98904.66
2018-12-12T20:46:29.677Z,98901.55
2018-12-12T20:49:00.606Z,98902.87
2018-12-12T20:51:31.023Z,98910.33
2018-12-12T20:54:01.051Z,98905.67
2018-12-12T20:56:31.080Z,98895.78
2018-12-12T20:59:01.327Z,98903.62
2018-12-12T21:01:31.871Z,98897.48
2018-12-12T21:04:02.031Z,98907.14
2018-12-12T21:06:32.756Z,98904.34
2018-12-12T21:09:03.414Z,98909.17
2018-12-12T21:11:34.586Z,98903.87
2018-12-12T21:14:05.387Z,98907.20
2018-12-12T21:16:35.635Z,98909.02
2018-12-12T21:19:06.057Z,98918.34
2018-12-12T21:21:36.609Z,98915.20
2018-12-12T21:24:06.751Z,98917.52
2018-12-12T21:26:36.884Z,98910.30
2018-12-12T21:29:10.666Z,98922.34
2018-12-12T21:31:40.702Z,98918.20
2018-12-12T21:34:11.574Z,98927.03
2018-12-12T21:36:42.473Z,98923.04
2018-12-12T21:39:12.601Z,98924.37
2018-12-12T21:41:43.777Z,98928.22
2018-12-12T21:44:13.898Z,98933.86
2018-12-12T21:46:43.935Z,98927.55
2018-12-12T21:49:13.886Z,98922.17
2018-12-12T21:51:43.872Z,98925.60
2018-12-12T21:54:14.032Z,98919.47
2018-12-12T21:56:45.021Z,98917.80
2018-12-12T21:59:15.281Z,98916.64
2018-12-12T22:01:49.575Z,98919.92
2018-12-12T22:04:19.958Z,98920.03
2018-12-12T22:06:50.362Z,98911.59
2018-12-12T22:09:20.461Z,98911.91
2018-12-12T22:11:50.610Z,98914.78
2018-12-12T22:14:20.807Z,98904.73
2018-12-12T22:16:52.073Z,98918.53
2018-12-12T22:19:22.336Z,98910.86
2018-12-12T22:21:53.179Z,98917.68
2018-12-12T22:24:23.533Z,98918.52
2018-12-12T22:26:54.469Z,98922.16
2018-12-12T22:29:25.202Z,98915.16
2018-12-12T22:31:55.547Z,98917.33
2018-12-12T22:34:27.436Z,98925.76
2018-12-12T22:37:01.487Z,98920.30
2018-12-12T22:39:32.105Z,98921.28
2018-12-12T22:42:02.358Z,98926.77
2018-12-12T22:44:32.565Z,98941.58
2018-12-12T22:47:02.700Z,98943.58
2018-12-12T22:52:09.546Z,98938.47
2018-12-12T22:54:39.483Z,98934.66
2018-12-12T22:57:09.599Z,98937.59
2018-12-12T22:59:40.282Z,98932.45
2018-12-12T23:02:10.670Z,98931.92
2018-12-12T23:04:40.761Z,98932.54
2018-12-12T23:07:11.006Z,98933.73
2018-12-12T23:09:41.461Z,98935.33
2018-12-12T23:12:11.624Z,98937.99
2018-12-12T23:14:42.816Z,98929.35
2018-12-12T23:17:12.944Z,98929.66
2018-12-12T23:19:43.117Z,98925.19
2018-12-12T23:22:15.169Z,98932.85
2018-12-12T23:24:45.664Z,98931.12
2018-12-12T23:27:15.787Z,98924.86
2018-12-12T23:29:49.921Z,98923.58
2018-12-12T23:32:20.165Z,98922.08
2018-12-12T23:34:50.353Z,98929.70
2018-12-12T23:39:57.791Z,98918.36
2018-12-12T23:42:27.825Z,98916.72
2018-12-12T23:44:58.613Z,98921.67
2018-12-12T23:47:28.885Z,98915.38
2018-12-12T23:49:59.196Z,98913.75
2018-12-12T23:52:29.302Z,98907.76
2018-12-12T23:55:00.490Z,98918.53
2018-12-12T23:57:30.981Z,98919.55
